Hamburg, Germany

06:29 AM CET am 28. Februar 2017 (GMT +0100)
Hamburg | | Change Station

Höhe 0 ft 53.70 °N, 10.10 °E | Updated 3 minutes ago

Teils Wolkig
Teils Wolkig
42.4 °F
gefühlte 40 °F
N
4.3
Wind Wechselnd Wind aus Südwest
Gusts 11.2 mph

Heute
Max. -- | schwach -- °F
--% Regenrisiko
Gestern
Max. -- | schwach -- °F
Precip. -- inch
Druck 29.15 inch
Sichtweite 6.2 Meilen
Wolken Few 3000 ft
Teils Wolkig 15000 ft
Windchill 40 °F
Taupunkt 38 °F
Feuchtigkeit 85%
Regen 0.08 inch
Schneehöhe Nicht verfügbar..
7:09 AM 5:55 PM
Erstes Viertel, 3% visible
METAR EDDH 280520Z 20017KT 9999 FEW030 SCT150 06/02 Q0987 TEMPO 21020G35KT SHRA BKN013CB
Druck 29.15 inch
Sichtweite 6.2 Meilen
Wolken Few 3000 ft
Teils Wolkig 15000 ft
Windchill 40 °F
Taupunkt 38 °F
Feuchtigkeit 85%
Regen 0.08 inch
Schneehöhe Nicht verfügbar..
7:09 AM 5:55 PM
Erstes Viertel, 3% visible
METAR EDDH 280520Z 20017KT 9999 FEW030 SCT150 06/02 Q0987 TEMPO 21020G35KT SHRA BKN013CB

Get Your Daily Forecast Email!

Thanks for signing up!

Be on the lookout for a verification email in your inbox.

You'll start receiving the daily forecast at 8 AM.

×

10-Day Weather Forecast

×

Almanac

Astronomie

Feb. 28, 2017 Aufgang Untergang
Genaue Zeit
Bürgerliche Dämmerung
Nautische Dämmerung
Astronomische Dämmerung
Mond
Länge des sichtbaren Lichts
Tageslänge
Tomorrow will be .
, % of the Moon is Illuminated

Heutige Rekorde

Country Highs Country Lows

Community

WunderPhotos

Upload Photos

1,962,540 Fotos hochgeladen!

WunderBlog® & News

Nearby

Luftqualität

  Luftqualität LQ Index Schadstoff
Not available.

Schneehöhe

Station Depth Höhe

Erdbebenaktivität

Stadt Distance Mag. Time & Date
Minimum magnitude displayed is 2.5.

küstennahe Wassertemperaturen

Ort Temperatur

Stations

Wetterstationen in der Umgebung

Stationsstandort Temp. Windchill Taupunkt Feuchtigkeit Wind Precip. Höhe Aktualisiert Art